Aktuální stav
Partly Cloudy
Conditions



Tlak
1025.92 (hPa) - 30.3 (inHG)
Viditelnost

10.0 (km) - 6.2 (míle)
   Teplota
4  °C
39°F
-3  °C
Rosný bod
61  %
 Vlhkost
   Rychlost větru
21  km/h
11  kts
13  mph
5.8  m/s
   Směr větru
 220°
Jiho západ
   Leťiště
LKLN
Location Plzen Line 36 km (22.37 mi)
Metar :LKLN 220500Z AUTO 22011KT 9999 FEW068 SCT100 04/M03 Q1026
Sat 22nd February 06:00 am